createdAt,value
2022-10-11T00:02:54.124Z,9.00
2022-10-11T00:05:34.821Z,9.00
2022-10-11T00:08:15.630Z,8.90
2022-10-11T00:11:04.002Z,8.80
2022-10-11T00:13:46.605Z,8.70
2022-10-11T00:21:46.490Z,8.50
2022-10-11T00:24:27.190Z,6.70
2022-10-11T00:29:48.414Z,8.20
2022-10-11T00:32:29.078Z,8.10
2022-10-11T00:35:09.961Z,8.10
2022-10-11T00:37:51.208Z,8.00
2022-10-11T00:40:32.526Z,8.00
2022-10-11T00:43:20.026Z,7.90
2022-10-11T00:46:04.466Z,7.90
2022-10-11T00:49:03.510Z,7.80
2022-10-11T00:54:34.160Z,7.80
2022-10-11T00:57:22.012Z,7.70
2022-10-11T01:02:47.410Z,7.70
2022-10-11T01:05:30.108Z,7.60
2022-10-11T01:10:53.814Z,7.60
2022-10-11T01:14:15.770Z,7.50
2022-10-11T01:17:20.158Z,7.50
2022-10-11T01:20:19.205Z,7.40
2022-10-11T01:23:28.243Z,7.30
2022-10-11T01:26:20.460Z,7.40
2022-10-11T01:29:19.946Z,7.40
2022-10-11T01:32:15.309Z,7.40
2022-10-11T01:37:42.565Z,7.30
2022-10-11T01:40:29.381Z,7.30
2022-10-11T01:43:10.437Z,7.30
2022-10-11T01:45:54.202Z,7.30
2022-10-11T01:48:34.142Z,7.30
2022-10-11T01:51:14.225Z,7.20
2022-10-11T01:54:11.097Z,7.40
2022-10-11T01:57:00.352Z,7.40
2022-10-11T01:59:53.054Z,7.40
2022-10-11T02:03:12.032Z,7.50
2022-10-11T02:06:12.465Z,7.50
2022-10-11T02:09:30.596Z,7.50
2022-10-11T02:12:15.971Z,7.60
2022-10-11T02:14:58.447Z,7.60
2022-10-11T02:17:49.488Z,7.60
2022-10-11T02:20:34.156Z,7.60
2022-10-11T02:23:17.256Z,7.60
2022-10-11T02:25:58.331Z,7.60
2022-10-11T02:28:42.624Z,7.60
2022-10-11T02:31:23.652Z,7.60
2022-10-11T02:34:37.904Z,7.60
2022-10-11T02:37:31.832Z,7.60
2022-10-11T02:40:33.527Z,7.60
2022-10-11T02:43:25.187Z,7.60
2022-10-11T02:46:08.473Z,7.60
2022-10-11T02:48:50.812Z,7.60
2022-10-11T02:51:31.923Z,7.60
2022-10-11T02:54:12.070Z,7.50
2022-10-11T03:02:14.918Z,7.30
2022-10-11T03:04:56.031Z,7.30
2022-10-11T03:07:35.874Z,7.20
2022-10-11T03:15:36.896Z,6.90
2022-10-11T03:18:16.707Z,6.90
2022-10-11T03:20:56.352Z,6.70
2022-10-11T03:26:17.672Z,6.60
2022-10-11T03:31:39.703Z,6.40
2022-10-11T03:39:43.092Z,6.10
2022-10-11T03:42:22.850Z,6.00
2022-10-11T03:45:05.153Z,5.80
2022-10-11T03:47:45.684Z,5.80
2022-10-11T03:50:25.569Z,5.70
2022-10-11T03:53:08.897Z,5.60
2022-10-11T03:55:54.218Z,5.60
2022-10-11T03:58:34.641Z,5.60
2022-10-11T04:01:14.338Z,5.40
2022-10-11T04:03:57.766Z,5.40
2022-10-11T04:06:38.810Z,5.40
2022-10-11T04:09:18.468Z,5.30
2022-10-11T04:11:58.605Z,5.30
2022-10-11T04:14:38.032Z,5.30
2022-10-11T04:17:18.068Z,5.20
2022-10-11T04:22:39.314Z,5.20
2022-10-11T04:25:18.904Z,5.20
2022-10-11T04:27:58.702Z,5.20
2022-10-11T04:30:38.550Z,5.20
2022-10-11T04:33:18.426Z,5.20
2022-10-11T04:41:20.943Z,5.30
2022-10-11T04:44:01.438Z,5.40
2022-10-11T04:49:23.919Z,5.40
2022-10-11T04:52:05.046Z,5.40
2022-10-11T04:54:46.122Z,5.40
2022-10-11T04:57:26.169Z,5.30
2022-10-11T05:00:06.513Z,5.30
2022-10-11T05:02:53.201Z,5.20
2022-10-11T05:05:33.622Z,5.10
2022-10-11T05:11:08.434Z,5.00
2022-10-11T05:13:49.055Z,5.00
2022-10-11T05:16:27.218Z,4.90
2022-10-11T05:19:06.418Z,4.80
2022-10-11T05:21:46.873Z,4.70
2022-10-11T05:24:26.608Z,4.70
2022-10-11T05:27:06.817Z,4.60
2022-10-11T05:29:48.363Z,4.40
2022-10-11T05:35:10.664Z,4.40
2022-10-11T05:37:50.458Z,4.30
2022-10-11T05:40:30.152Z,4.30
2022-10-11T05:43:10.182Z,4.30
2022-10-11T05:45:48.201Z,4.20
2022-10-11T05:48:30.515Z,4.10
2022-10-11T05:51:12.130Z,4.10
2022-10-11T05:56:33.949Z,4.10
2022-10-11T05:59:13.682Z,4.10
2022-10-11T06:01:57.507Z,4.10
2022-10-11T06:04:40.108Z,4.00
2022-10-11T06:07:21.071Z,4.00
2022-10-11T06:10:03.481Z,4.00
2022-10-11T06:12:44.094Z,4.00
2022-10-11T06:15:39.058Z,3.90
2022-10-11T06:18:39.156Z,3.90
2022-10-11T06:21:42.437Z,3.80
2022-10-11T06:24:38.545Z,3.70
2022-10-11T06:27:38.732Z,3.70
2022-10-11T06:30:50.327Z,3.60
2022-10-11T06:33:49.752Z,5.20
2022-10-11T06:36:56.735Z,3.60
2022-10-11T06:39:59.130Z,3.50
2022-10-11T06:42:56.843Z,3.50
2022-10-11T06:48:49.128Z,3.50
2022-10-11T06:51:42.803Z,3.60
2022-10-11T06:54:44.772Z,0.60
2022-10-11T06:57:42.830Z,3.70
2022-10-11T07:00:45.754Z,3.70
2022-10-11T07:03:45.961Z,3.70
2022-10-11T07:06:41.330Z,3.50
2022-10-11T07:09:45.338Z,3.70
2022-10-11T07:12:45.523Z,3.70
2022-10-11T07:18:41.602Z,3.90
2022-10-11T07:21:41.830Z,4.00
2022-10-11T07:24:40.946Z,4.10
2022-10-11T07:30:50.195Z,4.30
2022-10-11T07:33:55.265Z,4.40
2022-10-11T07:36:58.617Z,4.60
2022-10-11T07:39:54.910Z,4.70
2022-10-11T07:42:48.210Z,4.80
2022-10-11T07:45:29.080Z,4.90
2022-10-11T07:48:37.458Z,5.10
2022-10-11T07:51:34.065Z,5.20
2022-10-11T07:54:32.908Z,5.30
2022-10-11T07:57:36.232Z,5.50
2022-10-11T08:00:53.768Z,5.70
2022-10-11T08:04:00.163Z,5.80
2022-10-11T08:06:54.813Z,6.00
2022-10-11T08:09:54.558Z,6.20
2022-10-11T08:12:54.122Z,6.40
2022-10-11T08:16:11.170Z,6.60
2022-10-11T08:19:09.896Z,6.80
2022-10-11T08:25:11.567Z,7.20
2022-10-11T08:27:51.730Z,7.30
2022-10-11T08:30:57.970Z,7.60
2022-10-11T08:33:55.915Z,7.80
2022-10-11T08:39:56.154Z,8.10
2022-10-11T08:45:42.723Z,8.30
2022-10-11T08:48:15.143Z,8.40
2022-10-11T08:50:46.911Z,8.40
2022-10-11T08:53:48.409Z,8.50
2022-10-11T08:56:17.553Z,8.60
2022-10-11T08:58:54.116Z,8.70
2022-10-11T09:01:25.064Z,8.80
2022-10-11T09:03:53.223Z,8.80
2022-10-11T09:06:25.332Z,8.80
2022-10-11T09:09:09.058Z,9.00
2022-10-11T09:12:18.970Z,9.10
2022-10-11T09:15:08.877Z,9.20
2022-10-11T09:18:09.790Z,9.30
2022-10-11T09:21:04.590Z,9.50
2022-10-11T09:24:00.237Z,9.60
2022-10-11T09:26:44.306Z,9.80
2022-10-11T09:29:33.350Z,9.90
2022-10-11T09:32:01.691Z,10.00
2022-10-11T09:37:24.674Z,10.30
2022-10-11T09:40:18.515Z,10.40
2022-10-11T09:42:46.470Z,10.50
2022-10-11T09:45:20.028Z,10.70
2022-10-11T09:47:50.750Z,10.70
2022-10-11T09:50:26.215Z,10.90
2022-10-11T09:52:57.185Z,11.10
2022-10-11T09:55:43.419Z,11.20
2022-10-11T09:58:29.044Z,11.30
2022-10-11T10:01:11.685Z,11.50
2022-10-11T10:03:42.166Z,11.60
2022-10-11T10:06:32.821Z,11.70
2022-10-11T10:09:22.463Z,9.60
2022-10-11T10:14:28.331Z,12.10
2022-10-11T10:17:07.104Z,12.10
2022-10-11T10:19:48.834Z,12.20
2022-10-11T10:22:27.384Z,12.30
2022-10-11T10:24:56.855Z,12.40
2022-10-11T10:27:27.558Z,12.50
2022-10-11T10:30:10.365Z,12.60
2022-10-11T10:33:04.137Z,12.70
2022-10-11T10:35:42.276Z,12.80
2022-10-11T10:38:35.286Z,12.80
2022-10-11T10:41:06.530Z,12.90
2022-10-11T10:43:37.619Z,13.00
2022-10-11T10:46:51.514Z,13.00
2022-10-11T10:49:53.136Z,13.20
2022-10-11T10:52:41.762Z,13.20
2022-10-11T10:55:18.355Z,13.20
2022-10-11T10:58:05.379Z,13.30
2022-10-11T11:00:58.267Z,13.30
2022-10-11T11:03:52.860Z,13.10
2022-10-11T11:06:36.602Z,13.30
2022-10-11T11:09:32.860Z,13.40
2022-10-11T11:12:20.606Z,13.40
2022-10-11T11:15:07.192Z,13.40
2022-10-11T11:17:34.901Z,13.50
2022-10-11T11:20:43.972Z,13.60
2022-10-11T11:23:35.843Z,13.70
2022-10-11T11:26:22.519Z,13.80
2022-10-11T11:29:18.027Z,13.90
2022-10-11T11:32:04.449Z,14.00
2022-10-11T11:34:40.748Z,14.10
2022-10-11T11:37:20.826Z,14.20
2022-10-11T11:39:51.644Z,14.40
2022-10-11T11:42:35.989Z,14.50
2022-10-11T11:45:15.376Z,14.70
2022-10-11T11:47:47.289Z,14.80
2022-10-11T11:50:23.012Z,14.80
2022-10-11T11:53:00.817Z,14.80
2022-10-11T11:58:35.511Z,14.70
2022-10-11T12:01:31.306Z,14.60
2022-10-11T12:04:05.278Z,14.60
2022-10-11T12:06:37.904Z,14.50
2022-10-11T12:09:17.149Z,14.40
2022-10-11T12:12:02.279Z,14.40
2022-10-11T12:14:33.482Z,14.50
2022-10-11T12:17:12.180Z,14.50
2022-10-11T12:19:43.073Z,14.50
2022-10-11T12:22:18.425Z,14.60
2022-10-11T12:25:21.037Z,14.70
2022-10-11T12:27:54.405Z,14.60
2022-10-11T12:30:47.225Z,14.60
2022-10-11T12:33:45.444Z,14.40
2022-10-11T12:36:28.785Z,14.40
2022-10-11T12:39:20.905Z,14.20
2022-10-11T12:41:48.748Z,14.20
2022-10-11T12:44:19.245Z,14.20
2022-10-11T12:46:55.734Z,14.20
2022-10-11T12:49:48.511Z,14.30
2022-10-11T12:52:55.558Z,14.30
2022-10-11T12:55:46.061Z,14.20
2022-10-11T12:58:19.554Z,14.30
2022-10-11T13:00:55.643Z,14.20
2022-10-11T13:03:53.058Z,14.20
2022-10-11T13:06:26.823Z,14.20
2022-10-11T13:09:24.088Z,14.10
2022-10-11T13:12:14.692Z,14.00
2022-10-11T13:15:05.449Z,14.00
2022-10-11T13:17:38.434Z,13.90
2022-10-11T13:20:15.293Z,13.90
2022-10-11T13:22:44.299Z,13.90
2022-10-11T13:25:17.697Z,13.80
2022-10-11T13:27:46.345Z,13.90
2022-10-11T13:30:26.124Z,13.90
2022-10-11T13:32:54.265Z,13.90
2022-10-11T13:35:25.991Z,13.90
2022-10-11T13:37:53.712Z,14.00
2022-10-11T13:40:22.501Z,14.00
2022-10-11T13:42:52.213Z,14.00
2022-10-11T13:45:25.665Z,14.10
2022-10-11T13:47:54.936Z,14.10
2022-10-11T13:50:31.973Z,14.20
2022-10-11T13:53:24.169Z,14.20
2022-10-11T13:55:55.607Z,14.30
2022-10-11T13:58:46.390Z,14.40
2022-10-11T14:01:22.612Z,14.60
2022-10-11T14:04:00.114Z,14.70
2022-10-11T14:06:40.081Z,14.90
2022-10-11T14:09:20.280Z,15.10
2022-10-11T14:11:48.330Z,15.20
2022-10-11T14:14:31.197Z,15.30
2022-10-11T14:17:10.462Z,15.60
2022-10-11T14:19:40.342Z,15.70
2022-10-11T14:22:14.849Z,15.80
2022-10-11T14:24:46.575Z,15.90
2022-10-11T14:27:19.364Z,15.90
2022-10-11T14:30:00.466Z,15.90
2022-10-11T14:32:35.159Z,16.00
2022-10-11T14:35:03.405Z,16.00
2022-10-11T14:39:58.800Z,16.10
2022-10-11T14:42:26.341Z,16.10
2022-10-11T14:44:53.836Z,16.00
2022-10-11T14:49:49.670Z,15.80
2022-10-11T14:52:17.212Z,15.70
2022-10-11T14:54:44.746Z,15.60
2022-10-11T14:57:13.160Z,15.50
2022-10-11T14:59:40.810Z,15.40
2022-10-11T15:02:11.220Z,15.30
2022-10-11T15:04:38.972Z,15.30
2022-10-11T15:07:06.656Z,15.20
2022-10-11T15:09:34.247Z,15.20
2022-10-11T15:12:02.215Z,15.10
2022-10-11T15:14:30.085Z,15.10
2022-10-11T15:16:57.645Z,15.20
2022-10-11T15:19:25.734Z,15.30
2022-10-11T15:21:53.459Z,15.30
2022-10-11T15:24:21.237Z,15.30
2022-10-11T15:26:49.583Z,15.40
2022-10-11T15:29:18.199Z,15.40
2022-10-11T15:31:46.605Z,15.50
2022-10-11T15:34:14.460Z,15.60
2022-10-11T15:36:42.111Z,15.60
2022-10-11T15:39:31.966Z,15.60
2022-10-11T15:42:00.332Z,15.60
2022-10-11T15:44:27.910Z,15.50
2022-10-11T15:46:55.505Z,15.40
2022-10-11T15:51:51.107Z,15.30
2022-10-11T15:54:18.747Z,15.40
2022-10-11T15:56:46.487Z,15.40
2022-10-11T15:59:14.014Z,15.50
2022-10-11T16:01:41.722Z,15.50
2022-10-11T16:04:09.721Z,15.50
2022-10-11T16:06:37.126Z,15.50
2022-10-11T16:09:05.062Z,15.10
2022-10-11T16:11:32.651Z,15.10
2022-10-11T16:16:28.206Z,14.60
2022-10-11T16:21:24.220Z,13.90
2022-10-11T16:23:51.891Z,13.80
2022-10-11T16:31:20.598Z,13.40
2022-10-11T16:33:48.858Z,13.30
2022-10-11T16:36:32.054Z,13.40
2022-10-11T16:39:01.459Z,13.60
2022-10-11T16:41:29.027Z,13.80
2022-10-11T16:43:56.694Z,14.00
2022-10-11T16:46:24.307Z,14.20
2022-10-11T16:48:55.931Z,14.20
2022-10-11T16:51:24.382Z,14.20
2022-10-11T16:53:53.317Z,14.10
2022-10-11T16:56:22.684Z,14.00
2022-10-11T16:58:54.189Z,13.80
2022-10-11T17:01:22.467Z,13.50
2022-10-11T17:03:50.918Z,13.20
2022-10-11T17:06:19.897Z,13.00
2022-10-11T17:13:45.937Z,10.90
2022-10-11T17:16:14.075Z,11.80
2022-10-11T17:18:41.589Z,11.80
2022-10-11T17:21:12.577Z,11.40
2022-10-11T17:23:40.230Z,11.10
2022-10-11T17:26:11.541Z,13.60
2022-10-11T17:28:39.527Z,10.80
2022-10-11T17:33:36.771Z,10.60
2022-10-11T17:36:14.623Z,10.40
2022-10-11T17:38:42.551Z,10.30
2022-10-11T17:41:10.611Z,11.50
2022-10-11T17:43:38.245Z,10.10
2022-10-11T17:46:06.706Z,9.90
2022-10-11T17:48:36.916Z,9.90
2022-10-11T17:51:09.583Z,9.80
2022-10-11T17:53:37.723Z,9.80
2022-10-11T17:56:13.624Z,9.80
2022-10-11T18:01:13.164Z,9.80
2022-10-11T18:06:12.583Z,9.70
2022-10-11T18:11:14.383Z,9.70
2022-10-11T18:13:46.024Z,9.70
2022-10-11T18:16:15.541Z,9.70
2022-10-11T18:21:11.966Z,9.60
2022-10-11T18:23:40.319Z,9.50
2022-10-11T18:26:13.595Z,9.40
2022-10-11T18:28:42.531Z,9.30
2022-10-11T18:31:16.107Z,9.20
2022-10-11T18:33:46.023Z,9.10
2022-10-11T18:36:16.457Z,9.00
2022-10-11T18:38:47.218Z,8.90
2022-10-11T18:41:20.765Z,8.80
2022-10-11T18:43:53.803Z,8.70
2022-10-11T18:46:22.654Z,8.60
2022-10-11T18:48:53.130Z,8.50
2022-10-11T18:51:26.602Z,8.40
2022-10-11T18:53:55.592Z,8.30
2022-10-11T19:01:23.943Z,8.00
2022-10-11T19:03:54.259Z,7.90
2022-10-11T19:06:25.270Z,7.80
2022-10-11T19:08:55.735Z,7.80
2022-10-11T19:14:07.381Z,7.80
2022-10-11T19:16:39.791Z,7.80
2022-10-11T19:19:08.739Z,8.70
2022-10-11T19:21:36.873Z,7.90
2022-10-11T19:24:05.314Z,7.90
2022-10-11T19:26:34.711Z,7.90
2022-10-11T19:31:31.926Z,8.00
2022-10-11T19:36:30.488Z,8.10
2022-10-11T19:39:01.715Z,8.10
2022-10-11T19:41:29.340Z,8.20
2022-10-11T19:46:49.992Z,8.10
2022-10-11T19:49:17.430Z,8.10
2022-10-11T19:51:45.235Z,8.00
2022-10-11T19:54:15.055Z,7.90
2022-10-11T19:56:43.667Z,7.90
2022-10-11T19:59:12.617Z,7.80
2022-10-11T20:04:22.938Z,7.70
2022-10-11T20:06:59.417Z,7.60
2022-10-11T20:16:54.414Z,7.80
2022-10-11T20:19:27.779Z,7.90
2022-10-11T20:24:29.125Z,8.00
2022-10-11T20:31:53.935Z,8.20
2022-10-11T20:34:21.563Z,8.30
2022-10-11T20:36:50.813Z,8.30
2022-10-11T20:41:46.300Z,8.40
2022-10-11T20:44:16.296Z,8.50
2022-10-11T20:47:05.492Z,8.60
2022-10-11T20:49:33.144Z,8.70
2022-10-11T20:52:00.657Z,8.80
2022-10-11T20:54:29.801Z,8.90
2022-10-11T20:59:25.327Z,9.00
2022-10-11T21:01:52.940Z,9.10
2022-10-11T21:04:20.976Z,8.90
2022-10-11T21:06:48.995Z,9.10
2022-10-11T21:09:17.327Z,9.10
2022-10-11T21:19:13.035Z,9.00
2022-10-11T21:21:40.884Z,8.90
2022-10-11T21:24:08.893Z,8.90
2022-10-11T21:26:36.475Z,8.90
2022-10-11T21:34:03.271Z,8.70
2022-10-11T21:41:29.145Z,8.50
2022-10-11T21:43:57.335Z,8.40
2022-10-11T21:46:41.754Z,8.30
2022-10-11T21:49:13.976Z,8.10
2022-10-11T21:56:37.340Z,7.70
2022-10-11T21:59:07.896Z,10.50
2022-10-11T22:01:39.985Z,7.40
2022-10-11T22:09:04.395Z,7.40
2022-10-11T22:19:00.093Z,7.60
2022-10-11T22:21:27.502Z,7.60
2022-10-11T22:23:55.342Z,7.60
2022-10-11T22:26:25.443Z,7.50
2022-10-11T22:28:53.488Z,7.50
2022-10-11T22:31:21.469Z,7.40
2022-10-11T22:33:53.137Z,7.30
2022-10-11T22:36:21.097Z,7.00
2022-10-11T22:38:48.562Z,7.10
2022-10-11T22:43:44.038Z,7.10
2022-10-11T22:46:11.848Z,7.10
2022-10-11T22:48:39.420Z,7.00
2022-10-11T22:53:34.941Z,7.20
2022-10-11T22:56:02.562Z,7.20
2022-10-11T23:00:57.938Z,7.30
2022-10-11T23:03:25.528Z,7.30
2022-10-11T23:05:57.317Z,7.30
2022-10-11T23:08:25.749Z,7.30
2022-10-11T23:10:53.587Z,7.30
2022-10-11T23:13:21.835Z,7.20
2022-10-11T23:15:49.444Z,7.20
2022-10-11T23:18:17.110Z,7.20
2022-10-11T23:23:12.643Z,7.20
2022-10-11T23:25:40.191Z,7.20
2022-10-11T23:30:39.238Z,7.30
2022-10-11T23:35:35.402Z,7.50
2022-10-11T23:40:30.816Z,7.70
2022-10-11T23:42:58.841Z,7.70
2022-10-11T23:45:26.566Z,7.60
2022-10-11T23:50:21.930Z,7.60
2022-10-11T23:52:49.464Z,7.50
2022-10-11T23:55:17.064Z,7.40
2022-10-11T23:57:44.817Z,7.40
